createdAt,value
2022-10-11T00:01:48.658Z,13.91
2022-10-11T00:04:16.561Z,13.98
2022-10-11T00:06:44.371Z,13.99
2022-10-11T00:09:14.408Z,14.02
2022-10-11T00:11:42.986Z,14.01
2022-10-11T00:14:10.838Z,13.83
2022-10-11T00:16:41.461Z,13.76
2022-10-11T00:19:09.120Z,13.70
2022-10-11T00:21:37.066Z,13.62
2022-10-11T00:24:05.184Z,13.61
2022-10-11T00:26:34.283Z,13.65
2022-10-11T00:29:01.837Z,13.61
2022-10-11T00:31:34.711Z,13.59
2022-10-11T00:34:03.182Z,13.54
2022-10-11T00:36:30.976Z,13.51
2022-10-11T00:38:58.536Z,13.55
2022-10-11T00:41:26.280Z,13.53
2022-10-11T00:44:11.062Z,13.49
2022-10-11T00:46:39.684Z,13.47
2022-10-11T00:49:15.651Z,13.40
2022-10-11T00:51:48.721Z,13.33
2022-10-11T00:54:19.649Z,13.17
2022-10-11T00:56:51.293Z,13.06
2022-10-11T00:59:25.906Z,13.00
2022-10-11T01:01:53.667Z,12.96
2022-10-11T01:04:21.285Z,13.00
2022-10-11T01:06:50.456Z,12.96
2022-10-11T01:09:19.794Z,12.77
2022-10-11T01:11:49.433Z,12.72
2022-10-11T01:14:45.774Z,12.72
2022-10-11T01:17:22.604Z,12.66
2022-10-11T01:20:03.622Z,12.54
2022-10-11T01:22:51.930Z,12.44
2022-10-11T01:25:27.763Z,12.47
2022-10-11T01:28:15.847Z,12.37
2022-10-11T01:30:45.178Z,12.37
2022-10-11T01:33:28.365Z,12.29
2022-10-11T01:36:06.286Z,12.33
2022-10-11T01:38:38.915Z,12.26
2022-10-11T01:41:10.715Z,12.29
2022-10-11T01:43:39.886Z,12.20
2022-10-11T01:46:10.226Z,12.19
2022-10-11T01:48:48.109Z,12.19
2022-10-11T01:51:16.554Z,12.12
2022-10-11T01:54:00.266Z,12.07
2022-10-11T01:56:43.695Z,12.04
2022-10-11T01:59:23.083Z,11.98
2022-10-11T02:01:59.360Z,11.95
2022-10-11T02:04:32.127Z,11.98
2022-10-11T02:07:02.224Z,11.97
2022-10-11T02:09:36.235Z,11.87
2022-10-11T02:12:08.499Z,11.89
2022-10-11T02:14:40.576Z,11.88
2022-10-11T02:17:13.036Z,11.81
2022-10-11T02:19:45.769Z,11.69
2022-10-11T02:22:20.322Z,11.66
2022-10-11T02:24:52.588Z,11.60
2022-10-11T02:27:23.961Z,11.62
2022-10-11T02:29:53.520Z,11.53
2022-10-11T02:32:24.120Z,11.49
2022-10-11T02:34:54.949Z,11.48
2022-10-11T02:37:29.045Z,11.37
2022-10-11T02:40:04.036Z,11.39
2022-10-11T02:42:37.186Z,11.40
2022-10-11T02:45:11.271Z,11.32
2022-10-11T02:47:42.504Z,11.23
2022-10-11T02:50:12.412Z,11.19
2022-10-11T02:52:47.285Z,11.16
2022-10-11T02:55:14.852Z,11.16
2022-10-11T02:57:42.447Z,11.06
2022-10-11T03:00:11.302Z,11.02
2022-10-11T03:02:40.222Z,10.98
2022-10-11T03:05:08.628Z,10.99
2022-10-11T03:07:38.659Z,10.89
2022-10-11T03:10:07.966Z,10.84
2022-10-11T03:12:35.651Z,10.85
2022-10-11T03:15:03.565Z,10.87
2022-10-11T03:17:36.621Z,10.83
2022-10-11T03:20:07.652Z,10.81
2022-10-11T03:22:35.639Z,10.78
2022-10-11T03:25:04.644Z,10.77
2022-10-11T03:27:32.671Z,10.79
2022-10-11T03:30:00.744Z,10.76
2022-10-11T03:32:28.891Z,10.65
2022-10-11T03:34:56.623Z,10.68
2022-10-11T03:37:25.746Z,10.68
2022-10-11T03:39:53.420Z,10.56
2022-10-11T03:42:21.479Z,10.61
2022-10-11T03:44:51.316Z,10.62
2022-10-11T03:47:19.135Z,10.63
2022-10-11T03:49:46.802Z,10.52
2022-10-11T03:52:14.419Z,10.48
2022-10-11T03:54:43.389Z,10.46
2022-10-11T03:57:11.184Z,10.41
2022-10-11T03:59:38.775Z,10.45
2022-10-11T04:02:06.467Z,10.44
2022-10-11T04:04:34.400Z,10.43
2022-10-11T04:07:02.094Z,10.37
2022-10-11T04:09:30.052Z,10.31
2022-10-11T04:12:01.883Z,10.29
2022-10-11T04:14:29.765Z,10.25
2022-10-11T04:17:00.264Z,10.27
2022-10-11T04:19:28.835Z,10.21
2022-10-11T04:21:56.605Z,10.13
2022-10-11T04:24:29.268Z,10.07
2022-10-11T04:27:08.196Z,10.14
2022-10-11T04:29:38.599Z,10.04
2022-10-11T04:32:06.353Z,10.00
2022-10-11T04:34:34.098Z,10.04
2022-10-11T04:37:01.786Z,10.01
2022-10-11T04:39:29.505Z,10.03
2022-10-11T04:41:57.227Z,10.02
2022-10-11T04:44:26.259Z,9.97
2022-10-11T04:46:53.988Z,9.94
2022-10-11T04:49:21.916Z,9.96
2022-10-11T04:51:49.707Z,9.89
2022-10-11T04:54:17.655Z,9.79
2022-10-11T04:56:45.354Z,9.72
2022-10-11T04:59:13.101Z,9.70
2022-10-11T05:01:42.144Z,9.77
2022-10-11T05:04:09.754Z,9.76
2022-10-11T05:06:37.371Z,9.75
2022-10-11T05:09:05.123Z,9.71
2022-10-11T05:11:32.690Z,9.71
2022-10-11T05:14:00.612Z,9.65
2022-10-11T05:16:28.523Z,9.60
2022-10-11T05:18:57.492Z,9.42
2022-10-11T05:21:26.604Z,9.46
2022-10-11T05:23:56.182Z,9.55
2022-10-11T05:26:25.503Z,9.46
2022-10-11T05:28:53.453Z,9.26
2022-10-11T05:31:21.619Z,9.21
2022-10-11T05:33:49.577Z,9.05
2022-10-11T05:36:18.583Z,8.89
2022-10-11T05:38:49.130Z,8.91
2022-10-11T05:41:17.541Z,9.01
2022-10-11T05:43:45.903Z,9.13
2022-10-11T05:46:14.501Z,9.07
2022-10-11T05:48:42.086Z,9.05
2022-10-11T05:51:10.830Z,9.02
2022-10-11T05:53:40.581Z,9.04
2022-10-11T05:56:18.908Z,9.05
2022-10-11T05:58:46.569Z,9.13
2022-10-11T06:01:19.678Z,9.20
2022-10-11T06:03:47.543Z,9.36
2022-10-11T06:06:15.252Z,9.45
2022-10-11T06:08:53.302Z,9.81
2022-10-11T06:11:47.263Z,10.10
2022-10-11T06:14:27.799Z,10.66
2022-10-11T06:16:57.467Z,11.46
2022-10-11T06:19:33.233Z,11.61
2022-10-11T06:22:13.208Z,11.74
2022-10-11T06:25:32.741Z,12.44
2022-10-11T06:28:15.698Z,13.22
2022-10-11T06:30:47.779Z,13.53
2022-10-11T06:33:16.266Z,13.96
2022-10-11T06:35:43.885Z,13.89
2022-10-11T06:38:11.548Z,14.44
2022-10-11T06:40:39.485Z,14.48
2022-10-11T06:43:08.424Z,14.65
2022-10-11T06:45:36.397Z,15.16
2022-10-11T06:48:05.696Z,15.33
2022-10-11T06:50:58.035Z,15.23
2022-10-11T06:53:21.394Z,15.21
2022-10-11T06:55:49.276Z,16.14
2022-10-11T06:58:18.415Z,16.31
2022-10-11T07:00:46.162Z,16.52
2022-10-11T07:03:13.845Z,16.10
2022-10-11T07:05:41.469Z,15.77
2022-10-11T07:08:09.043Z,16.74
2022-10-11T07:10:37.491Z,16.88
2022-10-11T07:13:06.842Z,17.21
2022-10-11T07:15:41.083Z,17.19
2022-10-11T07:18:08.725Z,17.01
2022-10-11T07:20:37.167Z,15.92
2022-10-11T07:23:04.827Z,16.24
2022-10-11T07:25:32.426Z,16.07
2022-10-11T07:28:00.207Z,15.66
2022-10-11T07:30:27.964Z,15.32
2022-10-11T07:32:57.054Z,15.58
2022-10-11T07:35:24.814Z,16.13
2022-10-11T07:37:52.494Z,16.36
2022-10-11T07:40:20.351Z,16.42
2022-10-11T07:42:48.148Z,16.65
2022-10-11T07:45:15.875Z,16.42
2022-10-11T07:47:46.307Z,15.27
2022-10-11T07:50:15.354Z,15.18
2022-10-11T07:52:43.064Z,15.24
2022-10-11T07:55:10.859Z,15.28
2022-10-11T07:57:38.523Z,15.34
2022-10-11T08:00:07.880Z,15.80
2022-10-11T08:02:35.626Z,16.23
2022-10-11T08:05:03.396Z,16.22
2022-10-11T08:07:32.485Z,16.04
2022-10-11T08:10:00.672Z,15.96
2022-10-11T08:12:28.311Z,15.87
2022-10-11T08:14:56.193Z,15.65
2022-10-11T08:17:23.936Z,15.57
2022-10-11T08:19:51.773Z,15.81
2022-10-11T08:22:19.495Z,15.72
2022-10-11T08:24:50.167Z,15.65
2022-10-11T08:27:17.786Z,15.83
2022-10-11T08:29:45.773Z,15.61
2022-10-11T08:32:13.360Z,15.60
2022-10-11T08:34:40.915Z,15.30
2022-10-11T08:37:08.609Z,15.13
2022-10-11T08:39:36.524Z,14.27
2022-10-11T08:42:12.193Z,13.97
2022-10-11T08:45:09.056Z,13.74
2022-10-11T08:47:36.792Z,13.45
2022-10-11T08:50:06.392Z,13.36
2022-10-11T08:52:43.618Z,13.37
2022-10-11T08:55:19.150Z,13.28
2022-10-11T08:57:54.029Z,13.20
2022-10-11T09:00:22.848Z,13.44
2022-10-11T09:03:13.941Z,13.35
2022-10-11T09:05:55.342Z,13.28
2022-10-11T09:08:34.519Z,13.35
2022-10-11T09:11:09.901Z,13.15
2022-10-11T09:13:57.621Z,13.06
2022-10-11T09:16:37.809Z,12.95
2022-10-11T09:19:34.408Z,12.92
2022-10-11T09:22:10.313Z,12.89
2022-10-11T09:24:50.488Z,12.94
2022-10-11T09:27:33.221Z,13.15
2022-10-11T09:30:16.312Z,13.22
2022-10-11T09:32:47.382Z,13.15
2022-10-11T09:35:18.319Z,13.19
2022-10-11T09:37:55.032Z,13.23
2022-10-11T09:40:46.249Z,13.41
2022-10-11T09:43:14.166Z,13.47
2022-10-11T09:45:49.253Z,13.57
2022-10-11T09:48:21.169Z,13.54
2022-10-11T09:50:50.635Z,13.31
2022-10-11T09:53:19.318Z,13.32
2022-10-11T09:55:53.082Z,13.24
2022-10-11T09:58:30.272Z,13.31
2022-10-11T10:01:07.587Z,13.44
2022-10-11T10:03:37.663Z,13.68
2022-10-11T10:06:08.865Z,13.73
2022-10-11T10:08:37.594Z,13.67
2022-10-11T10:11:07.702Z,13.70
2022-10-11T10:13:44.032Z,13.81
2022-10-11T10:16:23.742Z,13.69
2022-10-11T10:18:54.216Z,13.78
2022-10-11T10:21:28.577Z,13.85
2022-10-11T10:23:57.731Z,13.83
2022-10-11T10:26:27.386Z,13.84
2022-10-11T10:29:01.281Z,13.85
2022-10-11T10:31:49.495Z,13.95
2022-10-11T10:34:28.790Z,13.89
2022-10-11T10:36:59.050Z,13.98
2022-10-11T10:39:34.248Z,13.89
2022-10-11T10:42:05.904Z,14.04
2022-10-11T10:44:33.653Z,14.10
2022-10-11T10:47:15.548Z,14.09
2022-10-11T10:49:54.150Z,13.96
2022-10-11T10:52:42.803Z,14.28
2022-10-11T10:55:22.278Z,14.21
2022-10-11T10:58:00.855Z,14.30
2022-10-11T11:00:37.424Z,14.21
2022-10-11T11:03:10.944Z,14.15
2022-10-11T11:05:46.573Z,14.16
2022-10-11T11:08:17.303Z,14.22
2022-10-11T11:10:51.648Z,14.35
2022-10-11T11:13:24.400Z,14.33
2022-10-11T11:16:04.119Z,14.30
2022-10-11T11:18:43.166Z,14.35
2022-10-11T11:21:31.800Z,14.41
2022-10-11T11:24:12.832Z,14.31
2022-10-11T11:26:45.540Z,14.42
2022-10-11T11:29:28.215Z,14.56
2022-10-11T11:32:10.639Z,14.52
2022-10-11T11:34:43.884Z,14.58
2022-10-11T11:37:23.481Z,14.72
2022-10-11T11:39:53.552Z,14.61
2022-10-11T11:42:25.930Z,14.74
2022-10-11T11:44:54.451Z,14.96
2022-10-11T11:47:28.201Z,14.95
2022-10-11T11:50:00.590Z,15.00
2022-10-11T11:52:34.177Z,14.89
2022-10-11T11:55:09.522Z,14.79
2022-10-11T11:57:48.823Z,14.80
2022-10-11T12:00:20.507Z,14.83
2022-10-11T12:02:56.428Z,14.83
2022-10-11T12:05:28.797Z,14.82
2022-10-11T12:08:00.762Z,14.97
2022-10-11T12:10:40.107Z,15.14
2022-10-11T12:13:21.484Z,15.13
2022-10-11T12:15:59.271Z,15.10
2022-10-11T12:18:27.591Z,15.17
2022-10-11T12:21:06.174Z,15.20
2022-10-11T12:23:46.002Z,15.28
2022-10-11T12:26:35.462Z,15.25
2022-10-11T12:29:28.871Z,15.45
2022-10-11T12:32:54.826Z,15.55
2022-10-11T12:35:58.054Z,15.47
2022-10-11T12:38:29.397Z,15.18
2022-10-11T12:41:00.604Z,15.39
2022-10-11T12:43:42.257Z,15.50
2022-10-11T12:46:40.215Z,15.49
2022-10-11T12:49:26.604Z,15.53
2022-10-11T12:52:01.178Z,15.53
2022-10-11T12:54:52.598Z,15.38
2022-10-11T12:57:59.107Z,15.47
2022-10-11T13:00:30.976Z,15.36
2022-10-11T13:03:04.932Z,15.36
2022-10-11T13:05:45.020Z,15.34
2022-10-11T13:08:19.828Z,15.39
2022-10-11T13:10:49.604Z,15.44
2022-10-11T13:13:23.051Z,15.41
2022-10-11T13:15:53.802Z,15.71
2022-10-11T13:18:24.628Z,15.70
2022-10-11T13:20:54.619Z,15.71
2022-10-11T13:23:25.184Z,15.65
2022-10-11T13:25:58.059Z,15.78
2022-10-11T13:28:25.880Z,15.78
2022-10-11T13:30:57.068Z,15.82
2022-10-11T13:33:32.038Z,15.85
2022-10-11T13:36:01.765Z,15.71
2022-10-11T13:38:31.926Z,15.87
2022-10-11T13:41:05.647Z,16.01
2022-10-11T13:43:34.661Z,16.07
2022-10-11T13:46:05.056Z,16.07
2022-10-11T13:48:39.712Z,16.12
2022-10-11T13:51:09.599Z,16.17
2022-10-11T13:53:37.381Z,16.18
2022-10-11T13:56:09.203Z,16.27
2022-10-11T13:58:40.447Z,16.10
2022-10-11T14:01:20.078Z,16.19
2022-10-11T14:03:50.176Z,16.36
2022-10-11T14:06:17.824Z,16.36
2022-10-11T14:08:48.938Z,16.25
2022-10-11T14:11:33.727Z,16.10
2022-10-11T14:14:01.894Z,16.00
2022-10-11T14:16:33.444Z,16.13
2022-10-11T14:19:10.427Z,16.29
2022-10-11T14:21:51.196Z,15.80
2022-10-11T14:24:19.390Z,15.87
2022-10-11T14:26:50.612Z,15.85
2022-10-11T14:29:23.179Z,15.93
2022-10-11T14:31:50.889Z,15.88
2022-10-11T14:34:20.895Z,15.87
2022-10-11T14:36:50.241Z,15.77
2022-10-11T14:39:19.941Z,15.75
2022-10-11T14:41:49.971Z,15.89
2022-10-11T14:44:18.303Z,15.90
2022-10-11T14:46:49.253Z,15.75
2022-10-11T14:49:18.963Z,15.74
2022-10-11T14:51:49.319Z,15.72
2022-10-11T14:54:18.826Z,15.66
2022-10-11T14:56:49.562Z,15.79
2022-10-11T14:59:21.173Z,15.82
2022-10-11T15:01:51.722Z,15.79
2022-10-11T15:04:19.630Z,15.79
2022-10-11T15:06:47.415Z,15.52
2022-10-11T15:09:16.925Z,15.58
2022-10-11T15:11:44.996Z,15.44
2022-10-11T15:14:14.055Z,15.49
2022-10-11T15:16:42.095Z,15.36
2022-10-11T15:19:14.755Z,15.39
2022-10-11T15:21:42.471Z,15.40
2022-10-11T15:24:10.350Z,15.29
2022-10-11T15:26:38.211Z,15.33
2022-10-11T15:29:09.597Z,15.28
2022-10-11T15:31:38.936Z,15.32
2022-10-11T15:34:06.904Z,15.30
2022-10-11T15:36:34.627Z,15.27
2022-10-11T15:39:02.678Z,15.18
2022-10-11T15:41:30.784Z,15.14
2022-10-11T15:43:58.446Z,15.03
2022-10-11T15:46:26.109Z,15.04
2022-10-11T15:48:55.514Z,15.06
2022-10-11T15:51:23.490Z,15.08
2022-10-11T15:53:51.241Z,15.03
2022-10-11T15:56:19.771Z,15.03
2022-10-11T15:58:47.801Z,15.04
2022-10-11T16:01:17.723Z,14.82
2022-10-11T16:03:46.507Z,14.86
2022-10-11T16:06:15.868Z,14.83
2022-10-11T16:08:43.577Z,14.80
2022-10-11T16:11:13.219Z,14.54
2022-10-11T16:13:41.074Z,14.44
2022-10-11T16:16:10.793Z,14.36
2022-10-11T16:18:39.435Z,14.37
2022-10-11T16:21:08.999Z,14.14
2022-10-11T16:23:38.960Z,14.15
2022-10-11T16:26:09.252Z,14.22
2022-10-11T16:28:37.780Z,14.13
2022-10-11T16:31:08.062Z,14.00
2022-10-11T16:33:35.749Z,13.94
2022-10-11T16:36:21.152Z,13.90
2022-10-11T16:38:50.125Z,13.85
2022-10-11T16:41:17.760Z,13.57
2022-10-11T16:43:45.545Z,13.50
2022-10-11T16:46:13.300Z,13.41
2022-10-11T16:48:40.915Z,13.29
2022-10-11T16:51:09.564Z,13.06
2022-10-11T16:53:37.758Z,12.88
2022-10-11T16:56:08.686Z,12.93
2022-10-11T16:58:37.478Z,12.82
2022-10-11T17:01:09.572Z,12.64
2022-10-11T17:03:37.690Z,12.64
2022-10-11T17:06:06.584Z,12.59
2022-10-11T17:08:35.109Z,12.55
2022-10-11T17:11:03.453Z,12.41
2022-10-11T17:13:32.632Z,12.28
2022-10-11T17:16:00.335Z,12.29
2022-10-11T17:18:37.508Z,12.25
2022-10-11T17:21:17.864Z,12.29
2022-10-11T17:23:45.679Z,12.17
2022-10-11T17:26:17.691Z,12.09
2022-10-11T17:28:47.479Z,12.12
2022-10-11T17:31:15.240Z,11.99
2022-10-11T17:33:42.938Z,12.18
2022-10-11T17:36:19.685Z,12.19
2022-10-11T17:38:47.570Z,12.09
2022-10-11T17:41:15.512Z,11.97
2022-10-11T17:43:43.514Z,11.98
2022-10-11T17:46:14.990Z,12.00
2022-10-11T17:48:44.474Z,11.94
2022-10-11T17:51:14.189Z,12.17
2022-10-11T17:53:42.747Z,12.25
2022-10-11T17:56:12.543Z,12.14
2022-10-11T17:58:40.732Z,12.08
2022-10-11T18:01:10.783Z,12.06
2022-10-11T18:03:40.515Z,12.22
2022-10-11T18:06:09.933Z,12.27
2022-10-11T18:08:40.560Z,12.28
2022-10-11T18:11:12.518Z,12.27
2022-10-11T18:13:42.929Z,12.14
2022-10-11T18:16:11.376Z,12.19
2022-10-11T18:18:41.103Z,12.10
2022-10-11T18:21:09.287Z,11.97
2022-10-11T18:23:38.403Z,12.01
2022-10-11T18:26:11.174Z,12.02
2022-10-11T18:28:39.195Z,11.85
2022-10-11T18:31:12.590Z,11.65
2022-10-11T18:33:45.404Z,11.53
2022-10-11T18:36:14.773Z,11.71
2022-10-11T18:38:46.913Z,11.63
2022-10-11T18:41:16.544Z,11.65
2022-10-11T18:43:50.192Z,11.50
2022-10-11T18:46:18.259Z,11.40
2022-10-11T18:48:49.511Z,11.46
2022-10-11T18:51:19.269Z,11.44
2022-10-11T18:53:47.731Z,11.33
2022-10-11T18:56:17.219Z,11.26
2022-10-11T18:58:45.809Z,11.06
2022-10-11T19:01:16.412Z,11.08
2022-10-11T19:03:44.729Z,11.07
2022-10-11T19:06:17.700Z,10.94
2022-10-11T19:08:46.413Z,10.88
2022-10-11T19:11:15.612Z,10.94
2022-10-11T19:13:44.100Z,10.83
2022-10-11T19:16:14.066Z,10.81
2022-10-11T19:18:44.649Z,10.75
2022-10-11T19:21:14.428Z,10.62
2022-10-11T19:23:43.464Z,10.57
2022-10-11T19:26:15.142Z,10.61
2022-10-11T19:28:43.546Z,10.56
2022-10-11T19:31:14.293Z,10.51
2022-10-11T19:33:41.987Z,10.43
2022-10-11T19:36:14.385Z,10.49
2022-10-11T19:38:44.971Z,10.46
2022-10-11T19:41:13.594Z,10.39
2022-10-11T19:43:41.727Z,10.51
2022-10-11T19:46:13.138Z,10.56
2022-10-11T19:48:42.659Z,10.55
2022-10-11T19:51:15.346Z,10.38
2022-10-11T19:53:44.065Z,10.37
2022-10-11T19:56:14.003Z,10.41
2022-10-11T19:58:42.591Z,10.41
2022-10-11T20:01:13.444Z,10.51
2022-10-11T20:03:41.109Z,10.52
2022-10-11T20:06:10.082Z,10.42
2022-10-11T20:08:39.736Z,10.25
2022-10-11T20:11:09.964Z,10.22
2022-10-11T20:13:38.978Z,10.21
2022-10-11T20:16:09.194Z,10.16
2022-10-11T20:18:38.102Z,10.13
2022-10-11T20:21:08.750Z,10.08
2022-10-11T20:23:37.090Z,10.15
2022-10-11T20:26:08.390Z,10.05
2022-10-11T20:28:37.495Z,10.04
2022-10-11T20:31:11.663Z,9.91
2022-10-11T20:33:39.252Z,9.84
2022-10-11T20:36:08.722Z,9.81
2022-10-11T20:38:38.204Z,9.82
2022-10-11T20:41:08.560Z,9.70
2022-10-11T20:43:36.353Z,9.55
2022-10-11T20:46:07.209Z,9.71
2022-10-11T20:48:36.686Z,9.82
2022-10-11T20:51:04.741Z,9.90
2022-10-11T20:53:32.270Z,9.87
2022-10-11T20:55:59.842Z,9.98
2022-10-11T20:58:28.807Z,9.87
2022-10-11T21:00:56.481Z,9.85
2022-10-11T21:03:24.236Z,9.88
2022-10-11T21:05:58.960Z,9.70
2022-10-11T21:08:26.932Z,9.61
2022-10-11T21:10:55.561Z,9.75
2022-10-11T21:13:23.920Z,9.75
2022-10-11T21:15:52.893Z,9.50
2022-10-11T21:18:20.854Z,9.43
2022-10-11T21:20:48.719Z,9.32
2022-10-11T21:23:18.773Z,9.43
2022-10-11T21:25:46.418Z,9.45
2022-10-11T21:28:14.151Z,9.56
2022-10-11T21:30:41.869Z,9.44
2022-10-11T21:33:10.960Z,9.34
2022-10-11T21:35:39.670Z,9.25
2022-10-11T21:38:07.317Z,9.24
2022-10-11T21:40:40.767Z,9.18
2022-10-11T21:43:08.643Z,9.08
2022-10-11T21:45:40.769Z,8.98
2022-10-11T21:48:08.443Z,8.98
2022-10-11T21:50:39.002Z,8.88
2022-10-11T21:53:06.613Z,8.80
2022-10-11T21:58:09.387Z,8.92
2022-10-11T22:00:37.049Z,8.84
2022-10-11T22:08:23.240Z,8.55
2022-10-11T22:13:53.509Z,8.54
2022-10-11T22:16:21.241Z,8.45
2022-10-11T22:18:49.110Z,8.40
2022-10-11T22:21:18.521Z,8.34
2022-10-11T22:23:49.766Z,8.34
2022-10-11T22:26:19.372Z,8.34
2022-10-11T22:28:47.318Z,8.33
2022-10-11T22:31:16.429Z,8.38
2022-10-11T22:36:16.284Z,8.34
2022-10-11T22:38:44.750Z,8.32
2022-10-11T22:41:14.111Z,8.24
2022-10-11T22:43:41.850Z,8.25
2022-10-11T22:46:10.197Z,8.21
2022-10-11T22:48:37.983Z,8.26
2022-10-11T22:51:05.586Z,8.36
2022-10-11T22:53:33.597Z,8.34
2022-10-11T22:56:01.451Z,8.24
2022-10-11T22:58:30.464Z,8.21
2022-10-11T23:00:58.069Z,8.14
2022-10-11T23:03:25.885Z,8.06
2022-10-11T23:05:57.538Z,8.07
2022-10-11T23:08:25.507Z,8.00
2022-10-11T23:10:53.591Z,8.00
2022-10-11T23:13:21.531Z,7.96
2022-10-11T23:15:50.624Z,7.97
2022-10-11T23:18:18.474Z,8.00
2022-10-11T23:20:46.126Z,8.00
2022-10-11T23:23:13.833Z,7.88
2022-10-11T23:25:41.388Z,7.82
2022-10-11T23:28:09.053Z,7.91
2022-10-11T23:30:36.625Z,7.89
2022-10-11T23:33:05.584Z,7.90
2022-10-11T23:35:35.091Z,7.90
2022-10-11T23:38:02.750Z,7.78
2022-10-11T23:40:30.305Z,7.70
2022-10-11T23:42:58.905Z,7.66
2022-10-11T23:45:26.482Z,7.66
2022-10-11T23:47:54.031Z,7.62
2022-10-11T23:50:23.051Z,7.57
2022-10-11T23:52:50.693Z,7.54
2022-10-11T23:55:18.873Z,7.59
2022-10-11T23:57:46.449Z,7.52
